Terminal Aerodrome Forecast
Issued by NWS

Home | Current Version | Previous Version | Text Only | Print | Product List | Glossary On
Versions: 1 2 3 4 5 6 7 8 9 10 11 12 13
000
FTUS41 KBTV 300500
TAFRUT
TAF
KRUT 300520Z 3006/0106 12010G19KT P6SM SCT020
      TEMPO 3006/3008 BKN020
     FM301400 13010KT P6SM SCT025 BKN060
     FM301600 13006KT P6SM BKN035
     FM302300 VRB03KT P6SM SCT035
      AMD LTD TO CLD VIS AND WIND=

USA.gov is the U.S. government's official web portal to all federal, state and local government web resources and services.